Time;durP1;ratioP1;P1;durP2;ratioP2;P2;SDS_P1;SDS_P2;PMS_P1;PMS_P2;Temp;Humidity;BMP_temperature;BMP_pressure;BME280_temperature;BME280_humidity;BME280_pressure;Samples;Min_cycle;Max_cycle;Signal;HPM_P1;HPM_P2
2022/03/16 00:00:29;;;;;;;;;;;;;;;1.41;82.55;102410.84;5017019;28;19913;-72
2022/03/16 00:02:54;;;;;;;;;;;;;;;1.34;82.84;102415.72;5013195;28;19917;-70
2022/03/16 00:05:20;;;;;;;;;;;;;;;1.30;81.82;102413.78;5034048;28;19940;-71
2022/03/16 00:07:45;;;;;;;;;;;;;;;1.28;82.20;102409.31;5013569;28;19917;-71
2022/03/16 00:10:11;;;;;;;;;;;;;;;1.24;81.71;102415.19;5016972;28;19921;-72
2022/03/16 00:12:37;;;;;;;;;;;;;;;1.20;80.38;102409.81;5016091;28;19909;-71
2022/03/16 00:15:03;;;;;;;;;;;;;;;1.21;81.91;102413.31;5012614;28;20306;-71
2022/03/16 00:17:31;;;;;;;;;;;;;;;1.18;82.67;102408.88;5031208;28;20284;-72
2022/03/16 00:19:57;;;;;;;;;;;;;;;1.20;82.34;102407.25;5014428;28;19921;-71
2022/03/16 00:22:22;;;;;;;;;;;;;;;1.20;82.68;102408.94;5013753;28;19925;-71
2022/03/16 00:24:47;;;;;;;;;;;;;;;1.21;82.64;102405.56;5034625;28;19913;-71
2022/03/16 00:27:13;;;;;;;;;;;;;;;1.21;83.23;102409.03;5015717;28;19917;-71
2022/03/16 00:29:38;;;;;;;;;;;;;;;1.23;83.38;102411.69;5015056;28;20019;-72
2022/03/16 00:32:04;;;;;;;;;;;;;;;1.23;83.17;102411.69;5025769;28;20304;-72
2022/03/16 00:34:30;;;;;;;;;;;;;;;1.26;83.39;102416.13;5026719;28;19913;-71
2022/03/16 00:36:56;;;;;;;;;;;;;;;1.24;83.53;102418.63;5032225;28;19923;-72
2022/03/16 00:39:21;;;;;;;;;;;;;;;1.22;83.31;102415.06;5017068;28;19920;-72
2022/03/16 00:41:46;;;;;;;;;;;;;;;1.20;82.87;102414.97;5031695;28;19923;-72
2022/03/16 00:44:12;;;;;;;;;;;;;;;1.18;82.93;102411.44;5015671;28;19925;-72
2022/03/16 00:46:37;;;;;;;;;;;;;;;1.19;83.44;102417.50;5015053;28;20011;-72
2022/03/16 00:49:03;;;;;;;;;;;;;;;1.18;83.07;102419.19;5015468;28;19924;-72
2022/03/16 00:51:28;;;;;;;;;;;;;;;1.10;83.07;102419.59;5014368;28;19932;-71
2022/03/16 00:53:56;;;;;;;;;;;;;;;1.04;83.07;102417.59;5011640;28;19924;-71
2022/03/16 00:56:26;;;;;;;;;;;;;;;1.05;83.69;102409.03;5010116;28;19927;-72
2022/03/16 00:58:51;;;;;;;;;;;;;;;1.01;83.25;102413.16;5040925;28;19925;-72
2022/03/16 01:01:16;;;;;;;;;;;;;;;0.94;83.20;102410.16;5031038;28;19909;-72
2022/03/16 01:03:42;;;;;;;;;;;;;;;0.95;83.38;102415.41;5014813;28;19917;-72
2022/03/16 01:06:17;;;;;;;;;;;;;;;0.98;84.12;102405.25;5016507;28;19991;-72
2022/03/16 01:08:43;;;;;;;;;;;;;;;1.07;83.89;102403.97;5031933;28;19916;-72
2022/03/16 01:11:09;;;;;;;;;;;;;;;1.15;83.88;102408.72;5032336;28;19913;-72
2022/03/16 01:13:34;;;;;;;;;;;;;;;1.18;84.15;102406.28;5015217;28;19913;-72
2022/03/16 01:16:00;;;;;;;;;;;;;;;1.23;84.27;102401.34;5030960;28;19939;-72
2022/03/16 01:18:25;;;;;;;;;;;;;;;1.25;83.11;102397.16;5014068;28;19925;-72
2022/03/16 01:20:50;;;;;;;;;;;;;;;1.27;83.76;102390.38;5014032;28;19920;-72
2022/03/16 01:23:16;;;;;;;;;;;;;;;1.30;84.11;102393.09;5014431;28;19924;-72
2022/03/16 01:25:41;;;;;;;;;;;;;;;1.34;83.06;102397.63;5030615;28;19964;-72
2022/03/16 01:28:06;;;;;;;;;;;;;;;1.37;83.82;102396.91;5028401;28;19928;-72
2022/03/16 01:30:32;;;;;;;;;;;;;;;1.41;84.01;102385.91;5009251;28;19928;-72
2022/03/16 01:32:57;;;;;;;;;;;;;;;1.45;83.06;102386.94;5010693;28;19927;-72
2022/03/16 01:35:22;;;;;;;;;;;;;;;1.48;80.49;102381.94;5023908;28;20386;-72
2022/03/16 01:37:48;;;;;;;;;;;;;;;1.51;83.57;102385.56;5011765;28;19939;-73
2022/03/16 01:40:13;;;;;;;;;;;;;;;1.56;79.95;102385.78;5014959;28;20381;-74
2022/03/16 01:42:39;;;;;;;;;;;;;;;1.60;82.19;102385.13;5027135;28;20294;-74
2022/03/16 01:45:05;;;;;;;;;;;;;;;1.66;82.89;102377.69;5014121;28;19917;-74
2022/03/16 01:47:30;;;;;;;;;;;;;;;1.69;83.32;102372.66;5012598;28;20515;-71
2022/03/16 01:49:56;;;;;;;;;;;;;;;1.70;82.20;102371.84;5030169;28;20258;-72
2022/03/16 01:52:25;;;;;;;;;;;;;;;1.73;79.25;102358.22;5028634;28;20377;-71
2022/03/16 01:54:50;;;;;;;;;;;;;;;1.79;81.21;102367.97;5030408;28;19920;-71
2022/03/16 01:57:16;;;;;;;;;;;;;;;1.82;81.03;102355.19;5003450;28;19921;-72
2022/03/16 01:59:42;;;;;;;;;;;;;;;1.88;81.91;102358.06;5003363;28;19917;-71
2022/03/16 02:02:08;;;;;;;;;;;;;;;1.96;82.50;102358.44;5031216;28;20329;-72
2022/03/16 02:04:34;;;;;;;;;;;;;;;1.96;81.17;102354.16;5010580;28;20133;-72
2022/03/16 02:06:59;;;;;;;;;;;;;;;1.93;81.86;102346.25;5020130;28;19992;-72
2022/03/16 02:09:24;;;;;;;;;;;;;;;1.93;80.96;102340.19;5029097;28;19928;-71
2022/03/16 02:11:50;;;;;;;;;;;;;;;1.94;81.92;102341.94;5012827;28;19917;-74
2022/03/16 02:14:17;;;;;;;;;;;;;;;1.96;82.68;102336.03;5012722;28;19920;-74
2022/03/16 02:16:43;;;;;;;;;;;;;;;1.99;83.25;102346.53;5029008;28;19924;-74
2022/03/16 02:19:09;;;;;;;;;;;;;;;2.00;81.32;102340.56;5028789;28;19913;-74
2022/03/16 02:21:36;;;;;;;;;;;;;;;1.99;80.34;102337.91;5028782;28;19925;-73
2022/03/16 02:24:02;;;;;;;;;;;;;;;1.97;82.39;102331.75;5029629;28;19959;-74
2022/03/16 02:26:28;;;;;;;;;;;;;;;1.95;82.29;102333.38;5013599;28;19924;-74
2022/03/16 02:28:54;;;;;;;;;;;;;;;1.99;82.50;102331.00;5012179;28;19917;-75
2022/03/16 02:31:19;;;;;;;;;;;;;;;2.02;82.78;102325.97;5028976;28;20003;-74
2022/03/16 02:33:47;;;;;;;;;;;;;;;2.01;80.92;102323.31;5029544;28;19959;-74
2022/03/16 02:36:12;;;;;;;;;;;;;;;2.02;82.16;102325.13;5011640;28;19947;-74
2022/03/16 02:38:38;;;;;;;;;;;;;;;2.01;81.58;102323.31;5010615;28;20012;-74
2022/03/16 02:41:04;;;;;;;;;;;;;;;2.02;82.09;102325.13;4986569;28;1191668;-74
2022/03/16 02:43:33;;;;;;;;;;;;;;;1.97;82.48;102322.31;5018116;28;20027;-74
2022/03/16 02:45:59;;;;;;;;;;;;;;;1.93;82.55;102315.22;5029527;28;19921;-74
2022/03/16 02:48:28;;;;;;;;;;;;;;;1.93;80.88;102325.56;5030419;28;19944;-73
2022/03/16 02:50:54;;;;;;;;;;;;;;;1.91;81.21;102329.75;5030678;28;20339;-74
2022/03/16 02:53:20;;;;;;;;;;;;;;;1.89;82.95;102328.81;5029053;28;19917;-74
2022/03/16 02:55:49;;;;;;;;;;;;;;;1.83;83.43;102336.28;5024127;28;19971;-74
2022/03/16 02:58:22;;;;;;;;;;;;;;;1.78;83.21;102336.06;5017650;28;20007;-73
2022/03/16 03:00:54;;;;;;;;;;;;;;;1.77;82.13;102330.78;5023680;28;19924;-74
2022/03/16 03:03:20;;;;;;;;;;;;;;;1.71;81.78;102324.53;5004799;28;19929;-74
2022/03/16 03:05:46;;;;;;;;;;;;;;;1.72;81.60;102325.41;5021425;28;19921;-74
2022/03/16 03:08:12;;;;;;;;;;;;;;;1.71;82.10;102319.38;5012689;28;19960;-74
2022/03/16 03:10:37;;;;;;;;;;;;;;;1.70;82.93;102333.09;5014185;28;19968;-73
2022/03/16 03:13:02;;;;;;;;;;;;;;;1.64;81.94;102325.06;5005972;28;19921;-74
2022/03/16 03:15:28;;;;;;;;;;;;;;;1.58;82.22;102318.69;5013642;28;19939;-73
2022/03/16 03:17:53;;;;;;;;;;;;;;;1.51;82.72;102322.69;5029093;28;20328;-74
2022/03/16 03:20:19;;;;;;;;;;;;;;;1.51;82.81;102327.84;5044819;28;20011;-72
2022/03/16 03:22:45;;;;;;;;;;;;;;;1.52;82.49;102324.44;5013491;28;19966;-71
2022/03/16 03:25:11;;;;;;;;;;;;;;;1.52;82.55;102322.75;5013561;28;19921;-71
2022/03/16 03:27:36;;;;;;;;;;;;;;;1.52;82.49;102322.75;5030053;28;19915;-71
2022/03/16 03:30:02;;;;;;;;;;;;;;;1.52;83.62;102322.75;5029262;28;19921;-72
2022/03/16 03:32:30;;;;;;;;;;;;;;;1.58;84.30;102321.28;5028935;28;19912;-71
2022/03/16 03:34:55;;;;;;;;;;;;;;;1.60;81.81;102324.84;5028826;28;20365;-72
2022/03/16 03:37:21;;;;;;;;;;;;;;;1.54;81.91;102331.47;5025736;28;20012;-71
2022/03/16 03:39:47;;;;;;;;;;;;;;;1.56;82.60;102332.41;5029033;28;19939;-71
2022/03/16 03:42:12;;;;;;;;;;;;;;;1.58;82.30;102340.25;5009605;28;20016;-72
2022/03/16 03:44:40;;;;;;;;;;;;;;;1.60;82.93;102336.03;5013852;28;19920;-71
2022/03/16 03:47:09;;;;;;;;;;;;;;;1.60;82.59;102336.03;5028599;28;19913;-72
2022/03/16 03:49:36;;;;;;;;;;;;;;;1.59;82.98;102334.25;5028422;28;19913;-71
2022/03/16 03:52:02;;;;;;;;;;;;;;;1.57;82.67;102333.31;5023178;28;19932;-72
2022/03/16 03:54:28;;;;;;;;;;;;;;;1.59;82.48;102323.94;5029187;28;19955;-72
2022/03/16 03:56:53;;;;;;;;;;;;;;;1.60;82.88;102320.53;5031084;28;19979;-71
2022/03/16 03:59:19;;;;;;;;;;;;;;;1.60;82.84;102323.13;5032886;28;19960;-71
2022/03/16 04:01:45;;;;;;;;;;;;;;;1.59;82.93;102323.94;5016591;28;19979;-71
2022/03/16 04:04:10;;;;;;;;;;;;;;;1.68;83.03;102337.31;5016299;28;20417;-71
2022/03/16 04:06:36;;;;;;;;;;;;;;;1.63;85.56;102331.03;5014615;28;19967;-71
2022/03/16 04:09:01;;;;;;;;;;;;;;;1.63;83.95;102330.16;5015846;28;19917;-72
2022/03/16 04:11:26;;;;;;;;;;;;;;;1.60;82.97;102335.16;5016185;28;20270;-71
2022/03/16 04:13:52;;;;;;;;;;;;;;;1.53;83.22;102340.00;5015492;28;19924;-74
2022/03/16 04:16:18;;;;;;;;;;;;;;;1.47;82.91;102324.22;5015045;28;19921;-71
2022/03/16 04:18:43;;;;;;;;;;;;;;;1.62;83.84;102329.25;5026412;28;19913;-71
2022/03/16 04:21:09;;;;;;;;;;;;;;;1.56;83.60;102318.63;5007858;28;19921;-71
2022/03/16 04:23:35;;;;;;;;;;;;;;;1.53;83.24;102329.69;5016361;28;20297;-71
2022/03/16 04:26:03;;;;;;;;;;;;;;;1.54;83.90;102336.63;5016645;28;19928;-71
2022/03/16 04:28:28;;;;;;;;;;;;;;;1.59;83.86;102326.50;5032073;28;20354;-71
2022/03/16 04:30:53;;;;;;;;;;;;;;;1.60;84.23;102330.00;5015220;28;19979;-71
2022/03/16 04:33:19;;;;;;;;;;;;;;;1.63;83.82;102330.16;5007131;28;19925;-71
2022/03/16 04:35:44;;;;;;;;;;;;;;;1.75;84.00;102322.97;5015644;28;20276;-71
2022/03/16 04:38:12;;;;;;;;;;;;;;;1.86;85.35;102328.66;5015166;28;19921;-71
2022/03/16 04:40:37;;;;;;;;;;;;;;;1.89;84.87;102329.69;5015136;28;19927;-71
2022/03/16 04:43:03;;;;;;;;;;;;;;;1.86;84.38;102323.50;5010327;28;19921;-72
2022/03/16 04:45:28;;;;;;;;;;;;;;;1.84;84.71;102325.09;5015324;28;19920;-71
2022/03/16 04:47:54;;;;;;;;;;;;;;;1.80;84.85;102320.63;5032560;28;19932;-71
2022/03/16 04:50:19;;;;;;;;;;;;;;;1.77;84.20;102321.38;5015761;28;20393;-71
2022/03/16 04:52:45;;;;;;;;;;;;;;;1.76;85.31;102316.13;5014542;28;20377;-71
2022/03/16 04:55:11;;;;;;;;;;;;;;;1.80;85.55;102324.09;5037576;28;19917;-71
2022/03/16 04:57:37;;;;;;;;;;;;;;;1.86;85.66;102318.34;5030862;28;19924;-72
2022/03/16 05:00:02;;;;;;;;;;;;;;;1.88;84.71;102316.69;5015379;28;19917;-71
2022/03/16 05:02:28;;;;;;;;;;;;;;;1.89;85.62;102314.19;5014497;28;20010;-71
2022/03/16 05:04:55;;;;;;;;;;;;;;;1.87;85.17;102313.22;5014292;28;19916;-71
2022/03/16 05:07:21;;;;;;;;;;;;;;;1.86;85.07;102319.22;5025473;28;19967;-72
2022/03/16 05:09:48;;;;;;;;;;;;;;;1.79;85.28;102321.44;5028258;28;20004;-71
2022/03/16 05:12:14;;;;;;;;;;;;;;;1.79;86.11;102316.25;5031460;28;19913;-72
2022/03/16 05:14:39;;;;;;;;;;;;;;;1.77;85.33;102312.69;5009926;28;20353;-72
2022/03/16 05:17:04;;;;;;;;;;;;;;;1.76;85.53;102321.28;5007811;28;19922;-73
2022/03/16 05:19:31;;;;;;;;;;;;;;;1.76;85.59;102316.13;5013479;28;20387;-71
2022/03/16 05:21:56;;;;;;;;;;;;;;;1.76;85.65;102329.03;5030344;28;19917;-72
2022/03/16 05:24:23;;;;;;;;;;;;;;;1.72;86.04;102321.16;5031601;28;20321;-72
2022/03/16 05:26:49;;;;;;;;;;;;;;;1.72;85.63;102313.41;5023756;28;20246;-73
2022/03/16 05:29:14;;;;;;;;;;;;;;;1.76;86.43;102317.00;5015391;28;19917;-72
2022/03/16 05:31:42;;;;;;;;;;;;;;;1.83;85.74;102318.19;5013519;28;20016;-73
2022/03/16 05:34:08;;;;;;;;;;;;;;;1.81;86.29;102306.88;5032910;28;19917;-73
2022/03/16 05:36:33;;;;;;;;;;;;;;;1.88;85.99;102308.94;5013136;28;20361;-71
2022/03/16 05:39:01;;;;;;;;;;;;;;;1.85;85.94;102307.13;5031791;28;19948;-71
2022/03/16 05:41:26;;;;;;;;;;;;;;;1.98;86.41;102307.69;5014062;28;20320;-73
2022/03/16 05:43:52;;;;;;;;;;;;;;;2.00;86.20;102317.28;5014645;28;19917;-72
2022/03/16 05:46:17;;;;;;;;;;;;;;;2.05;85.92;102312.31;5030528;28;19913;-73
2022/03/16 05:48:43;;;;;;;;;;;;;;;2.06;85.99;102311.53;5014564;28;19921;-71
2022/03/16 05:51:08;;;;;;;;;;;;;;;2.08;86.06;102303.03;5013718;28;19917;-72
2022/03/16 05:53:34;;;;;;;;;;;;;;;2.08;86.26;102304.69;5030964;28;19917;-72
2022/03/16 05:55:59;;;;;;;;;;;;;;;2.18;86.20;102313.78;5010817;28;19921;-73
2022/03/16 05:58:24;;;;;;;;;;;;;;;2.24;86.36;102306.28;5031642;28;19920;-73
2022/03/16 06:00:50;;;;;;;;;;;;;;;2.24;86.26;102314.06;5012368;28;19919;-72
2022/03/16 06:03:15;;;;;;;;;;;;;;;2.28;85.77;102318.56;5012434;28;19940;-73
2022/03/16 06:05:40;;;;;;;;;;;;;;;2.45;86.08;102319.34;5012664;28;19924;-73
2022/03/16 06:08:06;;;;;;;;;;;;;;;2.50;86.36;102325.63;5014517;28;19920;-72
2022/03/16 06:10:34;;;;;;;;;;;;;;;2.58;86.06;102324.22;5010911;28;19928;-72
2022/03/16 06:13:00;;;;;;;;;;;;;;;2.63;86.32;102320.97;5030349;28;19913;-72
2022/03/16 06:15:27;;;;;;;;;;;;;;;2.75;86.10;102317.22;5029307;28;19921;-73
2022/03/16 06:17:54;;;;;;;;;;;;;;;2.83;85.67;102327.94;5030321;28;19947;-72
2022/03/16 06:20:19;;;;;;;;;;;;;;;2.93;86.15;102331.78;5030059;28;19913;-73
2022/03/16 06:22:45;;;;;;;;;;;;;;;3.10;85.58;102329.94;5014152;28;19917;-73
2022/03/16 06:25:10;;;;;;;;;;;;;;;3.14;86.43;102326.66;5014195;28;19960;-72
2022/03/16 06:27:36;;;;;;;;;;;;;;;3.34;85.33;102327.50;5014235;28;20011;-73
2022/03/16 06:30:01;;;;;;;;;;;;;;;3.64;85.35;102327.00;5029847;28;19919;-71
2022/03/16 06:32:27;;;;;;;;;;;;;;;4.02;86.00;102337.13;5005730;28;19917;-72
2022/03/16 06:34:52;;;;;;;;;;;;;;;4.54;84.53;102339.13;5012832;28;20015;-73
2022/03/16 06:37:17;;;;;;;;;;;;;;;4.87;82.42;102328.19;5013631;28;19928;-72
2022/03/16 06:39:43;;;;;;;;;;;;;;;5.10;81.65;102331.59;5009279;28;19928;-72
2022/03/16 06:42:08;;;;;;;;;;;;;;;5.12;81.43;102329.94;5026681;28;20302;-72
2022/03/16 06:44:36;;;;;;;;;;;;;;;5.30;81.13;102326.19;5013859;28;19921;-72
2022/03/16 06:47:02;;;;;;;;;;;;;;;5.51;79.69;102319.09;5029985;28;19979;-72
2022/03/16 06:49:27;;;;;;;;;;;;;;;5.48;79.94;102323.34;5028247;28;19913;-72
2022/03/16 06:51:53;;;;;;;;;;;;;;;5.59;79.65;102321.06;5011702;28;19947;-72
2022/03/16 06:54:18;;;;;;;;;;;;;;;5.69;79.97;102324.03;5012037;28;19976;-73
2022/03/16 06:56:43;;;;;;;;;;;;;;;6.10;78.58;102333.13;5026045;28;20339;-77
2022/03/16 06:59:08;;;;;;;;;;;;;;;6.70;77.12;102324.47;5011041;28;20427;-73
2022/03/16 07:01:34;;;;;;;;;;;;;;;7.30;73.18;102318.25;5003397;28;19991;-74
2022/03/16 07:03:59;;;;;;;;;;;;;;;7.77;73.49;102320.25;5010141;28;20320;-74
2022/03/16 07:06:27;;;;;;;;;;;;;;;8.26;72.40;102320.47;5007908;28;20054;-75
2022/03/16 07:08:52;;;;;;;;;;;;;;;8.71;70.26;102311.84;5024375;28;21220;-74
2022/03/16 07:11:18;;;;;;;;;;;;;;;9.12;69.54;102306.53;5022963;28;19912;-77
2022/03/16 07:14:30;;;;;;;;;;;;;;;9.36;69.64;102305.16;5020281;28;19912;-74
2022/03/16 07:16:29;;;;;;;;;;;;;;;9.65;66.36;102308.25;5028000;28;19921;-78
2022/03/16 07:18:55;;;;;;;;;;;;;;;9.99;65.53;102289.56;5007552;28;19921;-74
2022/03/16 07:21:20;;;;;;;;;;;;;;;10.08;65.47;102294.03;5027177;28;20361;-75
2022/03/16 07:23:45;;;;;;;;;;;;;;;10.22;67.04;102295.09;5013055;28;20010;-73
2022/03/16 07:26:11;;;;;;;;;;;;;;;10.29;62.66;102291.69;5024027;28;19917;-74
2022/03/16 07:28:36;;;;;;;;;;;;;;;10.49;64.16;102288.50;5001089;28;20293;-74
2022/03/16 07:31:01;;;;;;;;;;;;;;;10.86;62.25;102283.63;5028305;28;19939;-75
2022/03/16 07:33:27;;;;;;;;;;;;;;;11.17;62.91;102279.56;5010561;28;20328;-76
2022/03/16 07:35:52;;;;;;;;;;;;;;;11.29;59.61;102286.66;5012750;28;19943;-78
2022/03/16 07:38:19;;;;;;;;;;;;;;;11.30;59.82;102285.78;5026553;28;20012;-78
2022/03/16 07:40:45;;;;;;;;;;;;;;;11.38;59.65;102284.13;5012033;28;19921;-73
2022/03/16 07:43:11;;;;;;;;;;;;;;;11.54;59.88;102284.25;5024207;28;19916;-77
2022/03/16 07:45:37;;;;;;;;;;;;;;;11.79;58.07;102288.78;5008331;28;20015;-75
2022/03/16 07:48:03;;;;;;;;;;;;;;;11.91;58.09;102276.56;5016246;28;20032;-73
2022/03/16 07:50:28;;;;;;;;;;;;;;;12.06;58.34;102283.72;5028626;28;20347;-77
2022/03/16 07:52:54;;;;;;;;;;;;;;;11.88;57.53;102268.69;5007857;28;19917;-73
2022/03/16 07:55:19;;;;;;;;;;;;;;;11.83;57.84;102262.53;5015348;28;20389;-76
2022/03/16 07:57:45;;;;;;;;;;;;;;;11.95;57.05;102266.16;5000260;28;20341;-74
2022/03/16 08:00:11;;;;;;;;;;;;;;;12.19;57.17;102285.53;5014749;28;19927;-78
2022/03/16 08:02:37;;;;;;;;;;;;;;;12.52;57.57;102270.75;5002877;28;19983;-75
2022/03/16 08:05:02;;;;;;;;;;;;;;;12.81;56.47;102273.47;5018900;28;20238;-78
2022/03/16 08:07:28;;;;;;;;;;;;;;;12.73;55.78;102264.69;5014336;28;19921;-73
2022/03/16 08:09:53;;;;;;;;;;;;;;;12.66;55.32;102270.81;5031888;28;19952;-74
2022/03/16 08:12:19;;;;;;;;;;;;;;;12.52;55.55;102256.75;5006079;28;19925;-74
2022/03/16 08:14:44;;;;;;;;;;;;;;;12.39;55.23;102261.94;5024503;28;21551;-73
2022/03/16 08:17:10;;;;;;;;;;;;;;;12.08;56.56;102272.34;5012489;28;20381;-74
2022/03/16 08:19:36;;;;;;;;;;;;;;;12.12;55.79;102287.25;5032136;28;19916;-78
2022/03/16 08:22:01;;;;;;;;;;;;;;;12.10;55.23;102282.88;5015168;28;19924;-77
2022/03/16 08:24:26;;;;;;;;;;;;;;;12.17;55.91;102284.66;5002355;28;19912;-73
2022/03/16 08:26:52;;;;;;;;;;;;;;;12.40;54.66;102295.25;5015806;28;20000;-75
2022/03/16 08:29:17;;;;;;;;;;;;;;;12.30;55.49;102285.59;5013061;28;19939;-73
2022/03/16 08:31:43;;;;;;;;;;;;;;;11.95;55.90;102283.63;5013107;28;19928;-75
2022/03/16 08:34:09;;;;;;;;;;;;;;;11.36;55.98;102291.06;5027704;28;20358;-71
2022/03/16 08:36:39;;;;;;;;;;;;;;;11.44;57.17;102289.41;5006363;28;20066;-74
2022/03/16 08:39:04;;;;;;;;;;;;;;;11.57;57.46;102279.00;5023969;28;19944;-72
2022/03/16 08:41:32;;;;;;;;;;;;;;;11.62;57.49;102279.91;5021390;28;20022;-73
2022/03/16 08:43:58;;;;;;;;;;;;;;;12.03;57.05;102278.44;5009426;28;19917;-72
2022/03/16 08:46:23;;;;;;;;;;;;;;;12.76;54.50;102261.19;5013422;28;20011;-73
2022/03/16 08:48:48;;;;;;;;;;;;;;;13.31;54.10;102271.72;5010148;28;19928;-72
2022/03/16 08:51:14;;;;;;;;;;;;;;;13.90;51.92;102276.09;5007689;28;19948;-72
2022/03/16 08:53:39;;;;;;;;;;;;;;;14.36;50.80;102281.19;5002046;28;20235;-74
2022/03/16 08:56:05;;;;;;;;;;;;;;;14.51;48.45;102291.66;5007196;28;19925;-75
2022/03/16 08:58:30;;;;;;;;;;;;;;;14.47;50.40;102274.09;5012127;28;19922;-72
2022/03/16 09:00:56;;;;;;;;;;;;;;;15.57;46.96;102276.84;5031131;28;19917;-75
2022/03/16 09:03:21;;;;;;;;;;;;;;;15.77;46.55;102262.53;5012057;28;19996;-73
2022/03/16 09:05:46;;;;;;;;;;;;;;;16.00;46.89;102274.66;5025677;28;20026;-73
2022/03/16 09:08:12;;;;;;;;;;;;;;;16.07;45.60;102286.91;5028752;28;19952;-76
2022/03/16 09:10:38;;;;;;;;;;;;;;;16.56;45.79;102275.69;5015313;28;19912;-75
2022/03/16 09:13:04;;;;;;;;;;;;;;;17.21;43.59;102280.06;5023942;28;19948;-73
2022/03/16 09:15:29;;;;;;;;;;;;;;;17.25;42.26;102272.94;5031361;28;19913;-74
2022/03/16 09:17:56;;;;;;;;;;;;;;;16.40;42.48;102269.75;5013735;28;20025;-74
2022/03/16 09:20:22;;;;;;;;;;;;;;;15.96;45.35;102278.22;5031269;28;20367;-74
2022/03/16 09:22:47;;;;;;;;;;;;;;;16.14;45.00;102264.78;5013885;28;20399;-73
2022/03/16 09:25:12;;;;;;;;;;;;;;;15.88;45.45;102270.41;5013642;28;19975;-74
2022/03/16 09:27:38;;;;;;;;;;;;;;;14.22;48.18;102262.78;5031681;28;20350;-74
2022/03/16 09:30:04;;;;;;;;;;;;;;;12.30;52.11;102268.06;5014186;28;20003;-73
2022/03/16 09:32:30;;;;;;;;;;;;;;;11.81;55.12;102269.50;5013065;28;19942;-75
2022/03/16 09:34:56;;;;;;;;;;;;;;;11.41;55.60;102262.25;5014976;28;19917;-73
2022/03/16 09:37:21;;;;;;;;;;;;;;;11.16;56.71;102266.41;5030214;28;21352;-73
2022/03/16 09:39:46;;;;;;;;;;;;;;;11.13;56.70;102261.16;5015577;28;19928;-75
2022/03/16 09:42:12;;;;;;;;;;;;;;;11.24;58.69;102260.38;5014167;28;19921;-73
2022/03/16 09:44:38;;;;;;;;;;;;;;;11.25;58.50;102263.91;5031385;28;19913;-74
2022/03/16 09:47:04;;;;;;;;;;;;;;;11.47;56.80;102256.19;5031441;28;19924;-73
2022/03/16 09:49:30;;;;;;;;;;;;;;;11.83;55.76;102265.16;5028010;28;19917;-75
2022/03/16 09:51:56;;;;;;;;;;;;;;;11.72;57.32;102268.63;5030906;28;19924;-74
2022/03/16 09:54:25;;;;;;;;;;;;;;;11.88;57.17;102279.19;5029271;28;19915;-73
2022/03/16 09:56:55;;;;;;;;;;;;;;;12.06;56.30;102274.06;5029447;28;20296;-73
2022/03/16 09:59:21;;;;;;;;;;;;;;;12.12;56.34;102265.34;5026081;28;19913;-73
2022/03/16 10:01:46;;;;;;;;;;;;;;;12.21;57.01;102275.91;5006192;28;19927;-73
2022/03/16 10:04:13;;;;;;;;;;;;;;;12.33;55.70;102258.44;5030782;28;20007;-74
2022/03/16 10:06:38;;;;;;;;;;;;;;;12.22;54.61;102247.88;5013838;28;19925;-74
2022/03/16 10:14:59;;;;;;;;;;;;;;;12.03;56.44;102257.44;5029346;28;19932;-73
2022/03/16 10:20:09;;;;;;;;;;;;;;;12.20;57.12;102247.00;5028667;28;19975;-73
2022/03/16 10:22:38;;;;;;;;;;;;;;;12.30;55.40;102247.03;5013310;28;20300;-73
2022/03/16 10:25:04;;;;;;;;;;;;;;;12.52;56.26;102246.22;5006935;28;19963;-74
2022/03/16 10:27:36;;;;;;;;;;;;;;;12.80;55.75;102239.25;5027352;28;19913;-73
2022/03/16 10:30:02;;;;;;;;;;;;;;;13.01;55.64;102243.66;5029999;28;19920;-73
2022/03/16 10:32:27;;;;;;;;;;;;;;;13.32;54.67;102257.69;5026803;28;19913;-74
2022/03/16 10:34:55;;;;;;;;;;;;;;;13.37;54.91;102252.44;5019601;28;19918;-72
2022/03/16 10:37:22;;;;;;;;;;;;;;;13.50;53.02;102243.69;5026014;28;20443;-71
2022/03/16 10:39:49;;;;;;;;;;;;;;;13.56;53.38;102242.78;5030198;28;19944;-72
2022/03/16 10:48:15;;;;;;;;;;;;;;;14.18;52.63;102245.25;5023171;28;19959;-72
2022/03/16 10:50:41;;;;;;;;;;;;;;;14.35;51.66;102239.88;5029786;28;19912;-71
2022/03/16 10:53:09;;;;;;;;;;;;;;;14.42;51.04;102236.31;5025129;28;19917;-71
2022/03/16 10:55:35;;;;;;;;;;;;;;;14.48;50.86;102233.66;5029824;28;19935;-72
2022/03/16 10:58:00;;;;;;;;;;;;;;;14.61;51.19;102228.28;5030300;28;19947;-73
2022/03/16 11:00:27;;;;;;;;;;;;;;;14.81;51.55;102218.53;5030962;28;19909;-72
2022/03/16 11:02:53;;;;;;;;;;;;;;;15.15;50.45;102217.38;5029899;28;20003;-71
2022/03/16 11:05:20;;;;;;;;;;;;;;;15.34;50.05;102216.31;5014642;28;20007;-73
2022/03/16 11:07:49;;;;;;;;;;;;;;;15.76;49.46;102219.38;5001863;28;20370;-73
2022/03/16 11:10:15;;;;;;;;;;;;;;;16.43;45.99;102213.28;5026732;28;19913;-73
2022/03/16 11:15:24;;;;;;;;;;;;;;;17.45;44.85;102216.94;5033813;28;19924;-73
2022/03/16 11:17:51;;;;;;;;;;;;;;;17.55;43.84;102210.56;5017177;28;20295;-73
2022/03/16 11:20:19;;;;;;;;;;;;;;;18.28;41.61;102217.94;5033754;28;19917;-74
2022/03/16 11:25:39;;;;;;;;;;;;;;;17.37;44.21;102210.88;5030356;28;19920;-71
2022/03/16 11:28:07;;;;;;;;;;;;;;;16.18;46.10;102224.19;5034218;28;19935;-74
2022/03/16 11:30:36;;;;;;;;;;;;;;;14.93;48.44;102219.28;5033226;28;19944;-73
2022/03/16 11:33:06;;;;;;;;;;;;;;;14.66;49.19;102226.53;5034385;28;19979;-73
2022/03/16 11:35:36;;;;;;;;;;;;;;;14.51;49.91;102223.09;5033092;28;20397;-75
2022/03/16 11:38:03;;;;;;;;;;;;;;;14.78;49.75;102226.44;5032390;28;19932;-73
2022/03/16 11:40:29;;;;;;;;;;;;;;;15.71;48.81;102226.47;5031126;28;19913;-74
2022/03/16 11:43:04;;;;;;;;;;;;;;;16.04;47.96;102223.50;5010757;28;19970;-72
2022/03/16 11:45:29;;;;;;;;;;;;;;;16.88;46.71;102207.31;5042785;28;19988;-76
2022/03/16 11:47:54;;;;;;;;;;;;;;;17.46;45.38;102216.03;5032499;28;19917;-74
2022/03/16 11:50:21;;;;;;;;;;;;;;;17.69;44.16;102225.34;5017027;28;20293;-74
2022/03/16 11:53:04;;;;;;;;;;;;;;;17.20;43.66;102224.47;5016027;28;19917;-74
2022/03/16 11:55:47;;;;;;;;;;;;;;;16.68;45.77;102218.19;5049944;28;19913;-74
2022/03/16 11:58:32;;;;;;;;;;;;;;;16.55;45.03;102225.44;5028718;28;20018;-75
2022/03/16 12:01:16;;;;;;;;;;;;;;;16.17;47.35;102219.78;5016014;28;19940;-73
2022/03/16 12:03:42;;;;;;;;;;;;;;;15.98;47.52;102226.22;5034864;28;20016;-73
2022/03/16 12:06:07;;;;;;;;;;;;;;;15.64;47.76;102219.50;5031970;28;19971;-75
2022/03/16 12:08:50;;;;;;;;;;;;;;;15.26;49.63;102223.44;5032375;28;20316;-73
2022/03/16 12:14:04;;;;;;;;;;;;;;;14.83;50.04;102214.09;5032411;28;20566;-75
2022/03/16 12:16:39;;;;;;;;;;;;;;;14.75;51.05;102209.78;5026201;28;19956;-74
2022/03/16 12:19:25;;;;;;;;;;;;;;;14.93;50.85;102214.91;5016496;28;19963;-73
2022/03/16 12:21:50;;;;;;;;;;;;;;;14.92;50.64;102199.94;5019670;28;19955;-73
2022/03/16 12:30:27;;;;;;;;;;;;;;;14.63;51.84;102190.50;5009694;28;19913;-74
2022/03/16 12:32:55;;;;;;;;;;;;;;;14.65;52.07;102187.84;5005474;28;20219;-73
2022/03/16 12:35:20;;;;;;;;;;;;;;;14.87;51.80;102188.56;5028719;28;19921;-74
2022/03/16 12:37:51;;;;;;;;;;;;;;;15.05;52.30;102183.09;5006273;28;19921;-73
2022/03/16 12:40:20;;;;;;;;;;;;;;;15.05;51.07;102187.53;5024871;28;20012;-73
2022/03/16 12:42:53;;;;;;;;;;;;;;;14.77;50.63;102182.50;5029027;28;19924;-73
2022/03/16 12:45:20;;;;;;;;;;;;;;;14.42;52.27;102175.66;5024966;28;19913;-73
2022/03/16 12:47:55;;;;;;;;;;;;;;;14.30;52.94;102173.09;5018855;28;19945;-72
2022/03/16 12:50:25;;;;;;;;;;;;;;;14.37;54.03;102161.63;5021999;28;19916;-72
2022/03/16 12:52:51;;;;;;;;;;;;;;;14.39;53.84;102162.50;5026817;28;19913;-74
2022/03/16 12:55:18;;;;;;;;;;;;;;;14.35;53.30;102171.31;5024855;28;19913;-73
2022/03/16 12:57:51;;;;;;;;;;;;;;;14.14;54.31;102160.00;5007956;28;20431;-74
2022/03/16 13:00:17;;;;;;;;;;;;;;;13.89;53.72;102158.38;5026656;28;19916;-73
2022/03/16 13:02:45;;;;;;;;;;;;;;;13.89;54.18;102155.75;4998938;28;19964;-73
2022/03/16 13:05:11;;;;;;;;;;;;;;;13.87;54.61;102150.47;5023129;28;19932;-71
2022/03/16 13:07:38;;;;;;;;;;;;;;;13.94;54.51;102157.47;5002924;28;20008;-73